Terminal Aerodrome Forecast
Issued by NWS Sioux Falls, SD

Home | Current Version | Previous Version | Text Only | Print | Product List | Glossary Off
Versions: 1 2 3 4 5 6 7 8 9 10 11 12 13 14 15 16

000
FTUS43 KFSD 272324
TAFFSD
TAF
KFSD 272324Z 2800/2824 33008KT P6SM SKC
     FM280400 36006KT P6SM FEW250
     FM281100 35006KT P6SM BKN022
     FM281600 02012KT P6SM FEW150=

USA.gov is the U.S. government's official web portal to all federal, state and local government web resources and services.